createdAt,value
2018-02-05T00:01:50.175Z,4.50
2018-02-05T00:04:17.943Z,3.70
2018-02-05T00:06:45.422Z,4.63
2018-02-05T00:09:13.458Z,3.90
2018-02-05T00:11:41.225Z,4.50
2018-02-05T00:14:08.718Z,3.90
2018-02-05T00:16:36.443Z,3.40
2018-02-05T00:19:03.939Z,4.20
2018-02-05T00:21:31.450Z,3.93
2018-02-05T00:23:59.655Z,4.13
2018-02-05T00:26:27.183Z,5.07
2018-02-05T00:28:54.678Z,4.40
2018-02-05T00:31:22.416Z,4.50
2018-02-05T00:33:50.163Z,3.87
2018-02-05T00:36:17.659Z,4.20
2018-02-05T00:38:45.985Z,3.87
2018-02-05T00:41:13.524Z,4.30
2018-02-05T00:43:41.140Z,4.77
2018-02-05T00:46:08.685Z,4.90
2018-02-05T00:48:36.448Z,5.63
2018-02-05T00:51:04.204Z,4.37
2018-02-05T00:53:31.699Z,5.17
2018-02-05T00:56:00.037Z,5.13
2018-02-05T00:58:27.546Z,6.13
2018-02-05T01:00:55.039Z,4.73
2018-02-05T01:03:22.729Z,5.00
2018-02-05T01:05:50.474Z,4.50
2018-02-05T01:08:17.987Z,4.80
2018-02-05T01:10:45.711Z,5.13
2018-02-05T01:13:13.203Z,4.43
2018-02-05T01:15:40.727Z,5.20
2018-02-05T01:18:08.375Z,4.33
2018-02-05T01:20:35.879Z,5.10
2018-02-05T01:23:03.380Z,4.77
2018-02-05T01:25:31.062Z,4.50
2018-02-05T01:27:58.813Z,4.93
2018-02-05T01:30:26.317Z,5.00
2018-02-05T01:32:53.814Z,4.50
2018-02-05T01:35:21.489Z,5.17
2018-02-05T01:37:48.983Z,5.80
2018-02-05T01:40:16.483Z,5.73
2018-02-05T01:42:43.979Z,5.60
2018-02-05T01:45:11.592Z,5.03
2018-02-05T01:47:39.387Z,5.73
2018-02-05T01:50:07.147Z,5.90
2018-02-05T01:52:34.647Z,5.57
2018-02-05T01:55:02.395Z,6.63
2018-02-05T01:57:30.136Z,5.40
2018-02-05T01:59:57.627Z,6.97
2018-02-05T02:02:25.260Z,5.50
2018-02-05T02:04:52.804Z,6.13
2018-02-05T02:07:20.307Z,6.00
2018-02-05T02:09:47.820Z,6.10
2018-02-05T02:12:15.317Z,5.97
2018-02-05T02:14:42.817Z,6.53
2018-02-05T02:17:10.617Z,6.37
2018-02-05T02:19:38.096Z,6.27
2018-02-05T02:22:05.614Z,6.93
2018-02-05T02:24:33.111Z,6.80
2018-02-05T02:27:00.640Z,6.20
2018-02-05T02:29:28.139Z,7.37
2018-02-05T02:31:56.396Z,6.00
2018-02-05T02:34:23.890Z,5.33
2018-02-05T02:36:51.550Z,5.97
2018-02-05T02:39:19.101Z,6.57
2018-02-05T02:41:46.803Z,7.20
2018-02-05T02:44:14.295Z,6.70
2018-02-05T02:46:41.796Z,6.50
2018-02-05T02:49:09.287Z,7.40
2018-02-05T02:51:36.795Z,7.40
2018-02-05T02:54:04.298Z,6.37
2018-02-05T02:56:31.863Z,7.53
2018-02-05T02:58:59.350Z,6.60
2018-02-05T03:01:28.523Z,7.03
2018-02-05T03:03:56.026Z,7.37
2018-02-05T03:06:23.827Z,7.13
2018-02-05T03:08:51.335Z,7.30
2018-02-05T03:11:19.022Z,7.97
2018-02-05T03:13:46.992Z,7.00
2018-02-05T03:16:14.570Z,8.23
2018-02-05T03:18:42.075Z,8.00
2018-02-05T03:21:11.023Z,8.07
2018-02-05T03:23:38.784Z,7.37
2018-02-05T03:26:06.553Z,7.50
2018-02-05T03:28:34.473Z,7.67
2018-02-05T03:31:02.733Z,8.03
2018-02-05T03:33:31.066Z,8.27
2018-02-05T03:35:58.835Z,7.20
2018-02-05T03:38:26.555Z,7.27
2018-02-05T03:40:54.055Z,6.53
2018-02-05T03:43:21.814Z,7.63
2018-02-05T03:45:49.340Z,8.00
2018-02-05T03:48:17.012Z,7.33
2018-02-05T03:50:44.520Z,8.90
2018-02-05T03:53:13.425Z,7.90
2018-02-05T03:55:40.924Z,7.90
2018-02-05T03:58:08.706Z,7.63
2018-02-05T04:00:36.206Z,7.80
2018-02-05T04:03:03.707Z,8.50
2018-02-05T04:05:31.216Z,8.30
2018-02-05T04:07:59.483Z,6.53
2018-02-05T04:10:27.091Z,8.40
2018-02-05T04:12:54.575Z,6.57
2018-02-05T04:15:22.078Z,7.77
2018-02-05T04:17:49.571Z,7.27
2018-02-05T04:20:17.077Z,7.53
2018-02-05T04:22:44.799Z,7.60
2018-02-05T04:25:12.301Z,7.50
2018-02-05T04:27:40.028Z,7.40
2018-02-05T04:30:07.790Z,8.20
2018-02-05T04:32:35.734Z,7.70
2018-02-05T04:35:03.231Z,8.00
2018-02-05T04:37:30.727Z,7.90
2018-02-05T04:39:58.237Z,7.50
2018-02-05T04:42:25.994Z,8.10
2018-02-05T04:44:53.491Z,7.10
2018-02-05T04:47:20.998Z,8.37
2018-02-05T04:49:48.626Z,6.93
2018-02-05T04:52:16.172Z,7.57
2018-02-05T04:54:43.852Z,7.80
2018-02-05T04:57:11.359Z,8.10
2018-02-05T04:59:39.089Z,7.70
2018-02-05T05:02:06.606Z,7.97
2018-02-05T05:04:34.330Z,8.20
2018-02-05T05:07:01.832Z,8.63
2018-02-05T05:09:29.551Z,8.13
2018-02-05T05:11:57.336Z,7.83
2018-02-05T05:14:24.811Z,8.00
2018-02-05T05:16:52.512Z,8.10
2018-02-05T05:19:20.299Z,7.63
2018-02-05T05:21:47.803Z,8.10
2018-02-05T05:24:15.301Z,8.53
2018-02-05T05:26:42.861Z,8.20
2018-02-05T05:29:10.407Z,8.43
2018-02-05T05:31:38.126Z,7.87
2018-02-05T05:34:05.634Z,8.60
2018-02-05T05:36:33.147Z,8.20
2018-02-05T05:39:00.652Z,8.67
2018-02-05T05:41:28.330Z,10.33
2018-02-05T05:43:56.091Z,8.93
2018-02-05T05:46:23.612Z,8.50
2018-02-05T05:48:51.307Z,8.90
2018-02-05T05:51:19.080Z,10.57
2018-02-05T05:53:46.588Z,8.60
2018-02-05T05:56:14.084Z,9.10
2018-02-05T05:58:41.605Z,8.80
2018-02-05T06:01:09.118Z,7.50
2018-02-05T06:03:36.662Z,8.43
2018-02-05T06:06:04.165Z,9.67
2018-02-05T06:08:31.859Z,8.40
2018-02-05T06:10:59.388Z,6.90
2018-02-05T06:13:26.883Z,8.60
2018-02-05T06:15:54.387Z,8.33
2018-02-05T06:18:21.899Z,7.13
2018-02-05T06:20:49.500Z,8.60
2018-02-05T06:23:18.498Z,8.93
2018-02-05T06:25:46.007Z,9.33
2018-02-05T06:28:13.718Z,8.50
2018-02-05T06:30:41.219Z,8.13
2018-02-05T06:33:08.724Z,7.97
2018-02-05T06:35:36.361Z,9.17
2018-02-05T06:38:03.856Z,7.80
2018-02-05T06:40:31.559Z,7.80
2018-02-05T06:42:59.074Z,7.70
2018-02-05T06:45:26.569Z,7.80
2018-02-05T06:47:54.067Z,7.90
2018-02-05T06:50:33.389Z,9.97
2018-02-05T06:53:12.663Z,6.73
2018-02-05T06:55:46.839Z,6.30
2018-02-05T06:58:14.524Z,7.13
2018-02-05T07:00:42.769Z,6.80
2018-02-05T07:03:10.331Z,5.30
2018-02-05T07:05:37.841Z,6.23
2018-02-05T07:08:05.549Z,5.77
2018-02-05T07:10:33.106Z,5.60
2018-02-05T07:13:00.584Z,4.53
2018-02-05T07:15:28.228Z,6.07
2018-02-05T07:17:55.778Z,5.10
2018-02-05T07:20:23.450Z,5.40
2018-02-05T07:22:50.938Z,4.97
2018-02-05T07:25:18.694Z,5.67
2018-02-05T07:27:46.431Z,5.43
2018-02-05T07:30:14.195Z,5.00
2018-02-05T07:32:41.687Z,5.13
2018-02-05T07:35:09.424Z,7.47
2018-02-05T07:37:37.611Z,5.57
2018-02-05T07:40:05.216Z,4.93
2018-02-05T07:42:33.023Z,6.43
2018-02-05T07:45:00.803Z,7.00
2018-02-05T07:47:29.882Z,7.93
2018-02-05T07:49:57.536Z,8.30
2018-02-05T07:52:25.045Z,7.43
2018-02-05T07:54:52.741Z,6.90
2018-02-05T07:57:20.267Z,6.50
2018-02-05T07:59:47.775Z,6.70
2018-02-05T08:02:15.323Z,7.07
2018-02-05T08:04:42.853Z,7.10
2018-02-05T08:07:10.354Z,5.30
2018-02-05T08:09:39.367Z,4.97
2018-02-05T08:12:07.106Z,5.53
2018-02-05T08:14:34.736Z,6.80
2018-02-05T08:17:02.292Z,5.87
2018-02-05T08:19:29.791Z,5.97
2018-02-05T08:21:57.307Z,6.60
2018-02-05T08:24:24.799Z,5.60
2018-02-05T08:26:52.307Z,5.97
2018-02-05T08:29:20.328Z,5.33
2018-02-05T08:31:47.927Z,5.50
2018-02-05T08:34:15.426Z,5.33
2018-02-05T08:36:42.923Z,5.90
2018-02-05T08:39:10.701Z,5.67
2018-02-05T08:41:38.922Z,6.07
2018-02-05T08:44:06.469Z,4.57
2018-02-05T08:46:34.263Z,5.63
2018-02-05T08:49:01.755Z,5.63
2018-02-05T08:51:29.475Z,5.50
2018-02-05T08:53:57.113Z,5.73
2018-02-05T08:56:24.591Z,5.07
2018-02-05T08:58:52.139Z,6.37
2018-02-05T09:01:19.771Z,5.00
2018-02-05T09:03:47.366Z,5.90
2018-02-05T09:06:14.907Z,6.03
2018-02-05T09:08:42.567Z,5.03
2018-02-05T09:11:10.108Z,5.90
2018-02-05T09:13:39.063Z,4.57
2018-02-05T09:16:06.579Z,4.43
2018-02-05T09:18:34.068Z,4.63
2018-02-05T09:21:01.723Z,5.47
2018-02-05T09:23:29.217Z,5.20
2018-02-05T09:25:56.729Z,4.63
2018-02-05T09:28:24.267Z,5.10
2018-02-05T09:30:51.844Z,4.60
2018-02-05T09:33:19.407Z,4.57
2018-02-05T09:35:46.903Z,3.90
2018-02-05T09:38:15.168Z,4.37
2018-02-05T09:40:42.872Z,4.40
2018-02-05T09:43:10.367Z,4.43
2018-02-05T09:45:37.883Z,4.30
2018-02-05T09:48:05.374Z,3.93
2018-02-05T09:50:32.916Z,3.73
2018-02-05T09:53:01.079Z,3.80
2018-02-05T09:55:28.582Z,4.97
2018-02-05T09:57:56.187Z,3.87
2018-02-05T10:00:23.898Z,4.13
2018-02-05T10:02:51.394Z,3.53
2018-02-05T10:05:19.180Z,4.50
2018-02-05T10:07:46.736Z,4.17
2018-02-05T10:10:14.532Z,3.30
2018-02-05T10:12:42.283Z,3.77
2018-02-05T10:15:10.055Z,3.47
2018-02-05T10:17:37.811Z,4.60
2018-02-05T10:20:05.304Z,3.53
2018-02-05T10:22:32.811Z,3.00
2018-02-05T10:25:00.488Z,3.20
2018-02-05T10:27:28.289Z,2.47
2018-02-05T10:29:55.792Z,3.17
2018-02-05T10:32:23.471Z,3.00
2018-02-05T10:34:50.967Z,2.90
2018-02-05T10:37:18.467Z,3.10
2018-02-05T10:39:45.960Z,2.50
2018-02-05T10:42:13.604Z,4.37
2018-02-05T10:44:41.102Z,3.20
2018-02-05T10:47:08.716Z,3.23
2018-02-05T10:49:36.283Z,2.80
2018-02-05T10:52:04.042Z,3.50
2018-02-05T10:54:32.740Z,3.70
2018-02-05T10:57:00.495Z,3.23
2018-02-05T10:59:27.982Z,2.60
2018-02-05T11:01:55.488Z,3.23
2018-02-05T11:04:23.183Z,3.13
2018-02-05T11:06:50.721Z,2.50
2018-02-05T11:09:18.334Z,3.33
2018-02-05T11:11:45.851Z,3.17
2018-02-05T11:14:13.355Z,2.90
2018-02-05T11:16:41.030Z,3.80
2018-02-05T11:19:08.837Z,2.80
2018-02-05T11:21:36.355Z,2.93
2018-02-05T11:24:03.858Z,2.90
2018-02-05T11:26:31.382Z,2.63
2018-02-05T11:28:58.983Z,2.90
2018-02-05T11:31:26.471Z,2.53
2018-02-05T11:33:54.199Z,2.90
2018-02-05T11:36:21.723Z,3.43
2018-02-05T11:38:49.405Z,2.33
2018-02-05T11:41:16.924Z,3.67
2018-02-05T11:43:45.384Z,3.17
2018-02-05T11:46:12.880Z,2.77
2018-02-05T11:48:40.395Z,2.90
2018-02-05T11:51:07.895Z,3.00
2018-02-05T11:53:35.790Z,2.50
2018-02-05T11:56:03.295Z,2.53
2018-02-05T11:58:31.084Z,2.57
2018-02-05T12:00:58.657Z,2.50
2018-02-05T12:03:26.139Z,3.00
2018-02-05T12:05:54.515Z,3.20
2018-02-05T12:08:22.017Z,3.20
2018-02-05T12:10:49.520Z,2.30
2018-02-05T12:13:17.009Z,2.77
2018-02-05T12:15:45.559Z,2.27
2018-02-05T12:18:13.063Z,3.20
2018-02-05T12:20:40.748Z,3.80
2018-02-05T12:23:08.255Z,4.50
2018-02-05T12:25:35.765Z,3.97
2018-02-05T12:28:03.452Z,4.40
2018-02-05T12:30:30.984Z,4.50
2018-02-05T12:32:58.542Z,3.70
2018-02-05T12:35:26.138Z,3.17
2018-02-05T12:37:53.915Z,5.00
2018-02-05T12:40:21.425Z,3.33
2018-02-05T12:42:49.107Z,4.13
2018-02-05T12:45:16.667Z,5.53
2018-02-05T12:47:44.362Z,4.07
2018-02-05T12:50:11.863Z,3.03
2018-02-05T12:52:39.476Z,2.90
2018-02-05T12:55:06.982Z,2.70
2018-02-05T12:57:34.484Z,3.47
2018-02-05T13:00:16.651Z,2.70
2018-02-05T13:02:44.147Z,3.13
2018-02-05T13:05:13.437Z,3.97
2018-02-05T13:07:41.192Z,7.77
2018-02-05T13:10:08.699Z,3.23
2018-02-05T13:12:36.201Z,3.23
2018-02-05T13:15:03.864Z,2.43
2018-02-05T13:17:31.355Z,2.90
2018-02-05T13:19:59.115Z,3.00
2018-02-05T13:22:26.851Z,3.10
2018-02-05T13:24:54.387Z,3.47
2018-02-05T13:27:22.040Z,3.30
2018-02-05T13:29:49.580Z,3.30
2018-02-05T13:32:17.184Z,3.53
2018-02-05T13:34:44.675Z,3.20
2018-02-05T13:37:12.184Z,3.20
2018-02-05T13:39:39.691Z,2.90
2018-02-05T13:42:07.194Z,2.83
2018-02-05T13:44:34.711Z,3.13
2018-02-05T13:47:02.991Z,4.07
2018-02-05T13:49:30.682Z,2.90
2018-02-05T13:51:58.191Z,3.03
2018-02-05T13:54:25.927Z,2.87
2018-02-05T13:56:53.423Z,2.83
2018-02-05T13:59:21.149Z,4.00
2018-02-05T14:01:48.921Z,3.73
2018-02-05T14:04:16.445Z,2.83
2018-02-05T14:06:44.003Z,3.30
2018-02-05T14:09:11.492Z,3.20
2018-02-05T14:11:39.053Z,2.53
2018-02-05T14:14:07.009Z,2.83
2018-02-05T14:16:34.527Z,2.67
2018-02-05T14:19:07.633Z,2.87
2018-02-05T14:21:35.131Z,2.57
2018-02-05T14:24:02.772Z,2.93
2018-02-05T14:26:30.469Z,2.40
2018-02-05T14:28:57.974Z,2.60
2018-02-05T14:31:25.763Z,2.20
2018-02-05T14:33:53.295Z,2.43
2018-02-05T14:36:20.934Z,3.00
2018-02-05T14:38:48.425Z,2.67
2018-02-05T14:41:16.218Z,2.50
2018-02-05T14:43:43.723Z,2.37
2018-02-05T14:46:11.387Z,2.50
2018-02-05T14:48:38.852Z,2.53
2018-02-05T14:51:06.351Z,2.20
2018-02-05T14:53:33.847Z,3.07
2018-02-05T14:56:01.859Z,2.10
2018-02-05T14:58:29.624Z,1.90
2018-02-05T15:00:57.122Z,1.73
2018-02-05T15:03:24.842Z,1.60
2018-02-05T15:05:52.616Z,2.60
2018-02-05T15:08:20.108Z,1.90
2018-02-05T15:10:47.612Z,1.73
2018-02-05T15:13:15.319Z,2.23
2018-02-05T15:15:43.538Z,2.67
2018-02-05T15:18:11.123Z,2.67
2018-02-05T15:20:38.637Z,5.33
2018-02-05T15:23:06.345Z,3.10
2018-02-05T15:25:33.834Z,3.07
2018-02-05T15:28:01.867Z,2.17
2018-02-05T15:30:29.361Z,3.10
2018-02-05T15:32:57.083Z,2.13
2018-02-05T15:35:24.581Z,3.47
2018-02-05T15:37:52.243Z,2.53
2018-02-05T15:40:19.760Z,2.33
2018-02-05T15:42:47.271Z,1.20
2018-02-05T15:45:14.887Z,2.00
2018-02-05T15:47:42.389Z,2.00
2018-02-05T15:50:09.919Z,2.23
2018-02-05T15:52:37.411Z,2.03
2018-02-05T15:55:06.129Z,1.93
2018-02-05T15:57:33.785Z,1.90
2018-02-05T16:00:01.568Z,2.17
2018-02-05T16:02:29.063Z,1.93
2018-02-05T16:04:56.563Z,1.97
2018-02-05T16:07:24.235Z,2.10
2018-02-05T16:09:51.766Z,2.30
2018-02-05T16:12:19.270Z,2.47
2018-02-05T16:14:46.876Z,1.50
2018-02-05T16:17:14.479Z,2.00
2018-02-05T16:19:42.135Z,2.07
2018-02-05T16:22:09.904Z,2.37
2018-02-05T16:24:37.666Z,2.37
2018-02-05T16:27:05.467Z,1.53
2018-02-05T16:29:33.191Z,2.40
2018-02-05T16:32:01.502Z,2.30
2018-02-05T16:34:29.032Z,2.60
2018-02-05T16:36:56.519Z,2.87
2018-02-05T16:39:24.031Z,2.73
2018-02-05T16:41:51.527Z,3.43
2018-02-05T16:44:19.044Z,2.33
2018-02-05T16:46:46.611Z,2.60
2018-02-05T16:49:14.115Z,3.90
2018-02-05T16:51:41.719Z,2.57
2018-02-05T16:54:09.919Z,2.50
2018-02-05T16:56:37.667Z,2.50
2018-02-05T16:59:05.163Z,2.20
2018-02-05T17:01:32.675Z,3.07
2018-02-05T17:04:00.304Z,2.73
2018-02-05T17:06:28.142Z,3.63
2018-02-05T17:08:55.643Z,3.70
2018-02-05T17:11:23.144Z,3.00
2018-02-05T17:13:50.647Z,3.53
2018-02-05T17:16:18.238Z,3.63
2018-02-05T17:18:45.735Z,5.70
2018-02-05T17:21:13.255Z,6.80
2018-02-05T17:23:40.919Z,5.97
2018-02-05T17:26:08.408Z,4.87
2018-02-05T17:28:36.138Z,5.40
2018-02-05T17:31:03.668Z,5.03
2018-02-05T17:33:31.173Z,5.00
2018-02-05T17:35:58.790Z,4.07
2018-02-05T17:38:26.283Z,4.97
2018-02-05T17:40:53.911Z,4.90
2018-02-05T17:43:21.466Z,5.30
2018-02-05T17:45:48.964Z,5.67
2018-02-05T17:48:16.469Z,5.20
2018-02-05T17:50:43.980Z,5.50
2018-02-05T17:53:11.497Z,5.40
2018-02-05T17:55:39.004Z,5.70
2018-02-05T17:58:06.498Z,4.40
2018-02-05T18:00:34.069Z,5.00
2018-02-05T18:03:01.566Z,5.20
2018-02-05T18:05:29.215Z,4.30
2018-02-05T18:07:56.721Z,5.73
2018-02-05T18:10:24.206Z,5.10
2018-02-05T18:12:51.715Z,5.40
2018-02-05T18:15:19.339Z,4.80
2018-02-05T18:17:46.836Z,5.23
2018-02-05T18:20:15.179Z,4.90
2018-02-05T18:22:42.803Z,5.47
2018-02-05T18:25:10.290Z,6.20
2018-02-05T18:27:37.851Z,5.43
2018-02-05T18:30:05.343Z,4.20
2018-02-05T18:32:32.855Z,4.37
2018-02-05T18:35:00.493Z,4.90
2018-02-05T18:37:28.001Z,4.43
2018-02-05T18:39:55.495Z,4.60
2018-02-05T18:42:23.017Z,4.57
2018-02-05T18:44:50.626Z,4.20
2018-02-05T18:47:18.138Z,4.23
2018-02-05T18:49:45.636Z,4.93
2018-02-05T18:52:13.319Z,4.70
2018-02-05T18:54:41.118Z,4.10
2018-02-05T18:57:10.122Z,4.70
2018-02-05T18:59:37.834Z,4.50
2018-02-05T19:02:17.299Z,4.63
2018-02-05T19:04:45.067Z,5.63
2018-02-05T19:07:12.563Z,5.60
2018-02-05T19:09:40.819Z,5.20
2018-02-05T19:12:08.339Z,5.17
2018-02-05T19:14:36.119Z,6.07
2018-02-05T19:17:03.900Z,5.50
2018-02-05T19:19:32.916Z,6.30
2018-02-05T19:22:00.609Z,6.00
2018-02-05T19:24:28.112Z,5.50
2018-02-05T19:26:57.127Z,5.67
2018-02-05T19:29:24.635Z,5.10
2018-02-05T19:31:52.193Z,5.03
2018-02-05T19:34:19.703Z,5.80
2018-02-05T19:36:47.206Z,5.03
2018-02-05T19:39:14.983Z,6.17
2018-02-05T19:41:42.487Z,5.70
2018-02-05T19:44:10.189Z,5.77
2018-02-05T19:46:37.692Z,6.10
2018-02-05T19:49:05.311Z,5.67
2018-02-05T19:51:32.892Z,6.03
2018-02-05T19:54:00.391Z,5.50
2018-02-05T19:56:28.107Z,6.70
2018-02-05T19:58:55.887Z,6.37
2018-02-05T20:01:23.398Z,5.20
2018-02-05T20:03:50.886Z,6.40
2018-02-05T20:06:18.754Z,7.57
2018-02-05T20:08:46.859Z,7.10
2018-02-05T20:11:14.405Z,10.20
2018-02-05T20:13:42.147Z,7.00
2018-02-05T20:16:09.651Z,6.40
2018-02-05T20:18:37.151Z,5.20
2018-02-05T20:21:04.801Z,5.30
2018-02-05T20:23:32.291Z,5.37
2018-02-05T20:26:00.380Z,5.43
2018-02-05T20:28:27.868Z,5.80
2018-02-05T20:30:56.094Z,5.27
2018-02-05T20:33:24.275Z,5.70
2018-02-05T20:35:52.679Z,5.00
2018-02-05T20:38:20.769Z,5.37
2018-02-05T20:40:48.455Z,5.50
2018-02-05T20:43:16.369Z,5.00
2018-02-05T20:45:44.655Z,5.37
2018-02-05T20:48:12.151Z,5.77
2018-02-05T20:50:39.802Z,5.93
2018-02-05T20:53:07.679Z,23.60
2018-02-05T20:55:35.343Z,16.93
2018-02-05T20:58:02.906Z,7.40
2018-02-05T21:00:30.480Z,6.30
2018-02-05T21:02:58.007Z,5.90
2018-02-05T21:05:25.545Z,5.30
2018-02-05T21:07:53.043Z,5.70
2018-02-05T21:10:21.264Z,6.37
2018-02-05T21:12:48.763Z,6.03
2018-02-05T21:15:16.312Z,5.77
2018-02-05T21:17:43.813Z,6.10
2018-02-05T21:20:11.321Z,6.00
2018-02-05T21:22:38.911Z,6.27
2018-02-05T21:25:06.423Z,6.17
2018-02-05T21:27:34.144Z,6.73
2018-02-05T21:30:01.640Z,6.93
2018-02-05T21:32:29.142Z,6.17
2018-02-05T21:34:56.801Z,5.73
2018-02-05T21:37:25.252Z,6.33
2018-02-05T21:39:52.752Z,5.83
2018-02-05T21:42:20.626Z,6.40
2018-02-05T21:44:48.164Z,5.83
2018-02-05T21:47:16.535Z,5.20
2018-02-05T21:49:44.041Z,7.00
2018-02-05T21:52:11.764Z,6.37
2018-02-05T21:54:39.557Z,5.20
2018-02-05T21:57:07.592Z,5.50
2018-02-05T21:59:35.229Z,6.13
2018-02-05T22:02:02.763Z,5.83
2018-02-05T22:04:31.074Z,6.10
2018-02-05T22:06:58.567Z,5.93
2018-02-05T22:09:26.415Z,5.70
2018-02-05T22:11:53.907Z,6.93
2018-02-05T22:14:21.615Z,5.33
2018-02-05T22:16:49.112Z,6.63
2018-02-05T22:19:17.460Z,6.60
2018-02-05T22:21:44.963Z,6.50
2018-02-05T22:24:12.471Z,6.37
2018-02-05T22:26:39.980Z,7.10
2018-02-05T22:29:08.524Z,5.70
2018-02-05T22:31:36.019Z,5.53
2018-02-05T22:34:03.735Z,5.90
2018-02-05T22:36:31.226Z,4.70
2018-02-05T22:38:58.950Z,5.90
2018-02-05T22:41:26.723Z,6.23
2018-02-05T22:43:54.576Z,5.23
2018-02-05T22:46:22.075Z,4.67
2018-02-05T22:48:49.700Z,4.67
2018-02-05T22:51:17.203Z,5.50
2018-02-05T22:53:44.705Z,4.77
2018-02-05T22:56:12.374Z,5.37
2018-02-05T22:58:40.142Z,4.90
2018-02-05T23:01:07.903Z,4.93
2018-02-05T23:03:35.723Z,5.47
2018-02-05T23:06:04.056Z,5.87
2018-02-05T23:08:31.543Z,4.60
2018-02-05T23:10:59.062Z,5.43
2018-02-05T23:13:26.562Z,4.40
2018-02-05T23:15:54.832Z,6.07
2018-02-05T23:18:22.327Z,5.97
2018-02-05T23:20:49.825Z,5.60
2018-02-05T23:23:17.474Z,4.93
2018-02-05T23:25:45.230Z,4.73
2018-02-05T23:28:12.731Z,4.83
2018-02-05T23:30:40.423Z,4.83
2018-02-05T23:33:07.926Z,4.33
2018-02-05T23:35:35.526Z,4.70
2018-02-05T23:38:03.797Z,4.53
2018-02-05T23:40:31.299Z,4.53
2018-02-05T23:42:59.287Z,4.63
2018-02-05T23:45:26.787Z,4.33
2018-02-05T23:47:54.278Z,4.80
2018-02-05T23:50:22.099Z,5.27
2018-02-05T23:52:50.358Z,4.40
2018-02-05T23:55:17.851Z,5.03
2018-02-05T23:57:45.355Z,5.10
